< Typhoon 199320 1993 Season Typhoon 199322 >
Typhoon 199321 (GENE)
General InformationTrack Information on Google MapsDetailed Wind InformationList of All Images || Disaster Info.ResourceGoogle EarthGE AnimationAtom FeedGeoJSON
Detalied Best Track (Time Zone = UTC)
Year Month Day Hour Lat. Long. Pressure (hPa) Wind (kt) Class Image Chart
1993 10 7 06 11.0 138.5 1006 0 2 Image Chart
1993 10 7 12 11.5 137.5 1006 0 2 Image Chart
1993 10 7 18 12.1 136.8 1004 0 2 Image Chart
1993 10 8 00 13.0 136.5 1004 0 2 Image Chart
1993 10 8 06 14.1 136.2 1002 0 2 Image Chart
1993 10 8 12 15.4 135.5 1000 0 2 Image Chart
1993 10 8 18 16.8 134.5 998 35 3 Image Chart
1993 10 9 00 18.2 133.6 998 35 3 Image Chart
1993 10 9 06 19.6 133.2 998 35 3 Image Chart
1993 10 9 12 21.0 133.2 998 35 3 Image Chart
1993 10 9 18 22.4 133.0 1000 0 2 Image Chart
1993 10 10 00 24.0 132.5 1004 0 2 Image Chart
1993 10 10 06 25.5 132.5 1006 0 2 Image Chart
1993 10 10 12 27.0 133.5 1010 0 2 Image Chart
1993 10 10 18 28.0 136.0 1012 0 6 Image Chart
1993 10 11 00 28.5 137.5 1014 0 6 Image Chart
1993 10 11 06 28.5 138.0 1014 0 6 Image Chart
1993 10 11 12 28.0 138.0 1016 0 6 Image Chart
1993 10 11 18 27.5 137.5 1016 0 6 Image Chart
1993 10 12 00 28.0 137.5 1016 0 6 Image Chart
1993 10 12 06 28.0 138.0 1014 0 6 Image Chart
1993 10 12 12 28.0 138.0 1014 0 6 Image Chart
1993 10 12 18 28.0 138.0 1014 0 6 Image Chart
1993 10 13 00 28.0 138.0 1014 0 6 Image Chart
1993 10 13 06 28.5 138.5 1014 0 6 Image Chart
1993 10 13 12 29.0 139.0 1014 0 6 Image Chart
1993 10 13 18 29.5 139.5 1014 0 6 Image Chart
1993 10 14 00 30.0 140.0 1014 0 6 Image Chart
1993 10 14 06 31.0 141.0 1014 0 6 Image Chart
Japan Meteorological Agency Best Track Data | Correction Date : 1994-01-10
< Typhoon 199320 1993 Season Typhoon 199322 >

Help